Time;durP1;ratioP1;P1;durP2;ratioP2;P2;SDS_P1;SDS_P2;PMS_P1;PMS_P2;Temp;Humidity;BMP_temperature;BMP_pressure;BME280_temperature;BME280_humidity;BME280_pressure;Samples;Min_cycle;Max_cycle;Signal;HPM_P1;HPM_P2
2024/04/20 00:01:32;;;;;;;4.63;1.63;;;;;;;4.58;100.00;100956.94;5197018;27;20026;-74
2024/04/20 00:03:57;;;;;;;1.83;1.40;;;;;;;4.55;100.00;100959.25;5163163;27;20751;-74
2024/04/20 00:06:24;;;;;;;3.70;1.63;;;;;;;4.50;100.00;100959.94;5167105;27;20658;-73
2024/04/20 00:08:50;;;;;;;2.88;1.50;;;;;;;4.51;100.00;100964.19;5144415;27;20018;-73
2024/04/20 00:11:15;;;;;;;2.83;1.63;;;;;;;4.52;100.00;100976.41;5185648;27;20045;-73
2024/04/20 00:13:41;;;;;;;3.85;1.45;;;;;;;4.48;100.00;100966.50;5191880;27;20018;-73
2024/04/20 00:16:07;;;;;;;2.45;1.50;;;;;;;4.50;100.00;100967.88;5136729;27;20011;-73
2024/04/20 00:18:39;;;;;;;2.88;1.65;;;;;;;4.44;100.00;100967.97;5162239;27;20019;-75
2024/04/20 00:21:04;;;;;;;1.80;1.40;;;;;;;4.49;100.00;100981.38;5134438;27;20022;-74
2024/04/20 00:23:30;;;;;;;3.88;1.92;;;;;;;4.45;100.00;100988.13;5196616;27;20016;-73
2024/04/20 00:25:56;;;;;;;6.03;1.73;;;;;;;4.42;100.00;100986.75;5140530;27;20011;-72
2024/04/20 00:28:22;;;;;;;2.95;2.00;;;;;;;4.38;100.00;100990.88;5133810;27;20022;-73
2024/04/20 00:30:59;;;;;;;3.97;1.85;;;;;;;4.39;100.00;100992.50;5170725;27;20010;-74
2024/04/20 00:33:25;;;;;;;3.13;1.80;;;;;;;4.39;100.00;101000.44;5146207;27;20423;-74
2024/04/20 00:35:51;;;;;;;2.25;1.40;;;;;;;4.38;100.00;100996.97;5142610;27;20016;-74
2024/04/20 00:38:17;;;;;;;3.92;1.77;;;;;;;4.41;100.00;101011.66;5193452;27;20039;-74
2024/04/20 00:40:43;;;;;;;3.50;1.48;;;;;;;4.42;100.00;101007.97;5128811;27;20026;-72
2024/04/20 00:43:16;;;;;;;3.17;1.40;;;;;;;4.42;100.00;101013.28;5177307;27;20019;-73
2024/04/20 00:45:44;;;;;;;2.78;1.52;;;;;;;4.42;100.00;101018.56;5187356;27;20051;-73
2024/04/20 00:48:11;;;;;;;3.67;1.73;;;;;;;4.45;100.00;101026.06;5167316;27;20019;-74
2024/04/20 00:50:37;;;;;;;;;;;;;;;4.46;100.00;101030.34;5168382;27;20024;-75
2024/04/20 00:53:04;;;;;;;2.45;1.60;;;;;;;4.49;100.00;101034.41;5135192;27;20105;-74
2024/04/20 00:55:30;;;;;;;3.25;1.83;;;;;;;4.47;100.00;101034.66;5169508;27;20011;-75
2024/04/20 00:58:00;;;;;;;3.15;1.60;;;;;;;4.44;100.00;101037.72;5191761;27;20056;-75
2024/04/20 01:00:27;;;;;;;3.55;1.73;;;;;;;4.44;100.00;101037.72;5198939;27;20012;-75
2024/04/20 01:02:54;;;;;;;2.20;1.63;;;;;;;4.44;100.00;101042.22;5196142;27;20012;-75
2024/04/20 01:05:20;;;;;;;2.30;1.70;;;;;;;4.46;100.00;101040.94;5162552;27;20015;-76
2024/04/20 01:07:46;;;;;;;3.85;1.70;;;;;;;4.47;100.00;101045.25;5197487;27;20828;-75
2024/04/20 01:10:12;;;;;;;3.00;1.50;;;;;;;4.45;100.00;101052.59;5196297;27;20028;-74
2024/04/20 01:12:38;;;;;;;2.92;1.80;;;;;;;4.37;100.00;101044.94;5188991;27;20014;-75
2024/04/20 01:15:05;;;;;;;3.53;1.55;;;;;;;4.34;100.00;101058.66;5160302;27;20060;-75
2024/04/20 01:17:31;;;;;;;2.40;1.80;;;;;;;4.35;100.00;101050.47;5187672;27;20099;-74
2024/04/20 01:19:57;;;;;;;1.90;1.40;;;;;;;4.32;100.00;101052.75;5142369;27;20446;-76
2024/04/20 01:22:23;;;;;;;3.47;1.90;;;;;;;4.33;100.00;101070.25;5161752;27;20015;-73
2024/04/20 01:24:53;;;;;;;3.80;1.60;;;;;;;4.34;100.00;101071.91;5162838;27;20020;-75
2024/04/20 01:27:18;;;;;;;2.33;1.70;;;;;;;4.36;100.00;101072.50;5187838;27;20082;-74
2024/04/20 01:29:44;;;;;;;4.55;1.83;;;;;;;4.36;100.00;101078.59;5188152;27;20007;-74
2024/04/20 01:32:10;;;;;;;3.28;1.90;;;;;;;4.37;100.00;101082.06;5175073;27;20050;-74
2024/04/20 01:34:36;;;;;;;3.47;2.03;;;;;;;4.33;100.00;101084.34;5172659;27;20113;-74
2024/04/20 01:37:01;;;;;;;3.97;1.60;;;;;;;4.37;100.00;101084.72;5170817;27;20022;-75
2024/04/20 01:39:27;;;;;;;2.95;1.70;;;;;;;4.31;100.00;101091.69;5195735;27;20019;-72
2024/04/20 01:41:53;;;;;;;3.10;1.58;;;;;;;4.31;100.00;101093.53;5142980;27;20026;-75
2024/04/20 01:44:19;;;;;;;2.45;1.33;;;;;;;4.32;100.00;101103.94;5166355;27;20174;-73
2024/04/20 01:46:45;;;;;;;3.10;1.30;;;;;;;4.30;100.00;101100.69;5189363;27;20518;-75
2024/04/20 01:49:10;;;;;;;2.08;1.50;;;;;;;4.33;100.00;101104.75;5164618;27;20012;-73
2024/04/20 01:51:36;;;;;;;2.63;1.90;;;;;;;4.34;100.00;101111.69;5170327;27;20023;-74
2024/04/20 01:54:02;;;;;;;2.47;1.50;;;;;;;4.35;100.00;101108.81;5170370;27;20051;-72
2024/04/20 01:56:27;;;;;;;2.97;1.52;;;;;;;4.29;100.00;101114.19;5168853;27;20023;-74
2024/04/20 01:58:53;;;;;;;1.83;1.10;;;;;;;4.27;100.00;101116.25;5168226;27;20712;-73
2024/04/20 02:01:19;;;;;;;1.40;1.10;;;;;;;4.27;100.00;101116.25;5192858;27;20016;-74
2024/04/20 02:03:45;;;;;;;2.53;1.58;;;;;;;4.29;100.00;101114.97;5151398;27;20889;-75
2024/04/20 02:06:11;;;;;;;1.90;1.35;;;;;;;4.25;100.00;101119.09;5166566;27;20057;-74
2024/04/20 02:08:37;;;;;;;2.72;1.30;;;;;;;4.24;100.00;101124.63;5163777;27;20020;-74
2024/04/20 02:11:03;;;;;;;2.33;1.20;;;;;;;4.23;100.00;101121.16;5169125;27;20070;-73
2024/04/20 02:13:29;;;;;;;2.92;1.63;;;;;;;4.27;100.00;101129.50;5173804;27;20013;-74
2024/04/20 02:15:55;;;;;;;1.80;1.08;;;;;;;4.27;100.00;101127.66;5163114;27;20019;-72
2024/04/20 02:18:21;;;;;;;2.88;1.60;;;;;;;4.27;100.00;101140.91;5196434;27;20083;-73
2024/04/20 02:20:46;;;;;;;2.20;1.10;;;;;;;4.27;100.00;101142.75;5145298;27;20020;-73
2024/04/20 02:23:12;;;;;;;1.75;1.10;;;;;;;4.26;100.00;101141.09;5191709;27;20008;-74
2024/04/20 02:25:38;;;;;;;2.65;1.42;;;;;;;4.24;100.00;101148.47;5171420;27;20022;-73
2024/04/20 02:28:04;;;;;;;1.42;1.10;;;;;;;4.24;100.00;101148.47;5164309;27;20008;-71
2024/04/20 02:30:30;;;;;;;2.08;1.17;;;;;;;4.25;100.00;101152.75;5188114;27;20012;-73
2024/04/20 02:32:55;;;;;;;1.42;1.13;;;;;;;4.23;100.00;101155.63;5177162;27;20110;-73
2024/04/20 02:35:21;;;;;;;2.08;1.20;;;;;;;4.23;100.00;101157.47;5148582;27;20091;-72
2024/04/20 02:37:47;;;;;;;1.73;1.08;;;;;;;4.27;100.00;101161.31;5197910;27;20003;-73
2024/04/20 02:40:14;;;;;;;2.42;1.40;;;;;;;4.24;100.00;101159.88;5172633;27;20011;-73
2024/04/20 02:42:39;;;;;;;2.47;1.45;;;;;;;4.22;100.00;101166.44;5187340;27;20011;-74
2024/04/20 02:45:12;;;;;;;3.33;1.17;;;;;;;4.19;100.00;101174.81;5192959;27;20003;-73
2024/04/20 02:47:38;;;;;;;;;;;;;;;4.20;100.00;101173.78;5165533;27;20017;-73
2024/04/20 02:50:04;;;;;;;1.30;1.00;;;;;;;4.21;100.00;101175.44;5177716;27;19928;-72
2024/04/20 02:52:30;;;;;;;4.13;1.73;;;;;;;4.16;100.00;101183.22;5202769;27;20080;-74
2024/04/20 02:54:55;;;;;;;2.03;1.40;;;;;;;4.18;100.00;101189.09;5145833;27;20022;-72
2024/04/20 02:57:22;;;;;;;3.03;1.52;;;;;;;4.13;100.00;101188.94;5147752;27;20011;-74
2024/04/20 02:59:48;;;;;;;4.25;1.48;;;;;;;4.14;100.00;101190.59;5168508;27;20093;-72
2024/04/20 03:02:15;;;;;;;3.25;1.30;;;;;;;4.15;100.00;101190.38;5174303;27;20847;-73
2024/04/20 03:04:41;;;;;;;2.30;1.80;;;;;;;4.14;100.00;101201.19;5193710;27;20528;-72
2024/04/20 03:07:07;;;;;;;2.03;1.48;;;;;;;4.08;100.00;101206.31;5149628;27;20004;-73
2024/04/20 03:09:32;;;;;;;3.42;1.90;;;;;;;4.10;100.00;101217.50;5145898;27;20019;-73
2024/04/20 03:11:58;;;;;;;2.50;1.45;;;;;;;4.11;100.00;101219.13;5194231;27;20007;-72
2024/04/20 03:14:24;;;;;;;3.70;1.73;;;;;;;4.09;100.00;101215.88;5194247;27;20027;-73
2024/04/20 03:16:50;;;;;;;4.75;1.52;;;;;;;4.10;100.00;101222.81;5196708;27;20003;-73
2024/04/20 03:19:17;;;;;;;2.50;2.00;;;;;;;4.13;100.00;101221.56;5187436;27;20011;-73
2024/04/20 03:21:42;;;;;;;5.18;2.47;;;;;;;4.09;100.00;101221.19;5199063;27;20051;-73
2024/04/20 03:24:08;;;;;;;3.60;1.90;;;;;;;4.08;100.00;101227.53;5167879;27;20004;-74
2024/04/20 03:26:34;;;;;;;5.88;2.45;;;;;;;3.96;100.00;101226.56;5169956;27;20016;-73
2024/04/20 03:29:00;;;;;;;3.20;1.80;;;;;;;4.01;100.00;101234.69;5177097;27;20008;-74
2024/04/20 03:31:25;;;;;;;2.78;2.15;;;;;;;4.00;100.00;101233.09;5192074;27;20008;-74
2024/04/20 03:33:57;;;;;;;3.45;1.98;;;;;;;3.99;100.00;101230.63;5175914;27;20583;-73
2024/04/20 03:36:23;;;;;;;3.15;1.50;;;;;;;3.95;100.00;101240.84;5143902;27;20012;-73
2024/04/20 03:38:49;;;;;;;3.33;1.95;;;;;;;3.91;100.00;101237.00;5191378;27;20074;-72
2024/04/20 03:41:15;;;;;;;2.70;1.92;;;;;;;3.87;100.00;101251.72;5191102;27;20580;-74
2024/04/20 03:43:42;;;;;;;2.50;1.95;;;;;;;3.82;100.00;101248.88;5190068;27;20799;-73
2024/04/20 03:46:08;;;;;;;3.67;1.90;;;;;;;3.81;100.00;101249.91;5185401;27;20024;-73
2024/04/20 03:48:34;;;;;;;2.90;1.77;;;;;;;3.75;100.00;101253.41;5171440;27;20121;-72
2024/04/20 03:51:00;;;;;;;3.47;1.80;;;;;;;3.68;100.00;101268.53;5169283;27;20529;-74
2024/04/20 03:53:25;;;;;;;3.97;1.90;;;;;;;3.62;100.00;101274.66;5138838;27;20022;-73
2024/04/20 03:55:54;;;;;;;2.90;1.90;;;;;;;3.59;100.00;101280.34;5199131;27;20015;-72
2024/04/20 03:58:20;;;;;;;2.80;1.85;;;;;;;3.51;100.00;101273.47;5192600;27;20039;-73
2024/04/20 04:00:47;;;;;;;3.42;2.00;;;;;;;3.45;100.00;101290.19;5174210;27;20031;-74
2024/04/20 04:03:32;;;;;;;3.00;1.70;;;;;;;3.42;100.00;101288.78;5169955;27;20022;-72
2024/04/20 04:05:58;;;;;;;2.75;1.83;;;;;;;3.44;100.00;101301.81;5167526;27;20012;-73
2024/04/20 04:08:27;;;;;;;5.75;1.95;;;;;;;3.45;100.00;101298.94;5189963;27;20045;-74
2024/04/20 04:10:53;;;;;;;2.95;1.63;;;;;;;3.46;100.00;101308.53;5191542;27;20015;-74
2024/04/20 04:13:19;;;;;;;2.40;1.60;;;;;;;3.41;100.00;101303.03;5152684;27;20008;-74
2024/04/20 04:15:44;;;;;;;2.70;2.20;;;;;;;3.44;100.00;101320.34;5174929;27;20008;-74
2024/04/20 04:18:11;;;;;;;2.30;1.55;;;;;;;3.43;100.00;101316.88;5146133;27;20027;-74
2024/04/20 04:20:37;;;;;;;2.70;1.88;;;;;;;3.45;100.00;101314.03;5199069;27;20012;-74
2024/04/20 04:23:03;;;;;;;3.58;1.70;;;;;;;3.41;100.00;101329.53;5144092;27;20008;-72
2024/04/20 04:25:32;;;;;;;3.08;1.75;;;;;;;3.34;100.00;101323.44;5189949;27;20063;-72
2024/04/20 04:27:58;;;;;;;4.50;1.67;;;;;;;3.31;100.00;101330.97;5177426;27;20019;-71
2024/04/20 04:30:24;;;;;;;2.55;1.83;;;;;;;3.29;100.00;101329.34;5133609;27;20012;-74
2024/04/20 04:32:50;;;;;;;5.30;1.90;;;;;;;3.23;100.00;101337.28;5158994;27;20012;-72
2024/04/20 04:35:16;;;;;;;2.63;1.75;;;;;;;3.21;100.00;101349.94;5139493;27;20016;-73
2024/04/20 04:37:42;;;;;;;3.45;2.17;;;;;;;3.14;100.00;101349.13;5163392;27;20012;-73
2024/04/20 04:40:08;;;;;;;4.90;1.95;;;;;;;3.11;100.00;101350.31;5164806;27;20015;-72
2024/04/20 04:42:34;;;;;;;3.22;1.88;;;;;;;3.09;100.00;101352.38;5174419;27;20740;-74
2024/04/20 04:45:00;;;;;;;4.90;2.00;;;;;;;3.04;100.00;101354.00;5192286;27;20153;-73
2024/04/20 04:47:26;;;;;;;2.65;1.55;;;;;;;2.95;100.00;101358.69;5202934;27;20008;-73
2024/04/20 04:49:51;;;;;;;3.13;1.85;;;;;;;2.88;100.00;101360.53;5144823;27;20092;-73
2024/04/20 04:52:17;;;;;;;4.07;2.20;;;;;;;2.81;100.00;101373.75;5142325;27;20034;-72
2024/04/20 04:54:43;;;;;;;2.67;2.05;;;;;;;2.78;100.00;101381.25;5172499;27;20008;-73
2024/04/20 04:57:09;;;;;;;3.03;1.73;;;;;;;2.75;100.00;101371.91;5168555;27;20844;-73
2024/04/20 04:59:38;;;;;;;;;;;;;;;2.65;100.00;101376.81;5192759;27;20063;-73
2024/04/20 05:02:04;;;;;;;2.45;1.70;;;;;;;2.62;100.00;101382.47;5110975;27;19960;-73
2024/04/20 05:04:30;;;;;;;3.25;1.60;;;;;;;2.61;100.00;101394.06;5166397;27;20545;-75
2024/04/20 05:06:55;;;;;;;2.70;1.63;;;;;;;2.56;100.00;101396.50;5197275;27;20012;-72
2024/04/20 05:09:21;;;;;;;4.35;1.73;;;;;;;2.56;100.00;101404.44;5172247;27;20020;-71
2024/04/20 05:11:48;;;;;;;2.95;2.10;;;;;;;2.57;100.00;101401.59;5137017;27;20543;-73
2024/04/20 05:14:14;;;;;;;3.25;1.55;;;;;;;2.56;100.00;101401.78;5188909;27;20253;-73
2024/04/20 05:16:41;;;;;;;2.80;1.90;;;;;;;2.54;100.00;101417.06;5176279;27;20035;-72
2024/04/20 05:19:07;;;;;;;2.78;1.60;;;;;;;2.59;100.00;101409.34;5192434;27;20012;-72
2024/04/20 05:21:33;;;;;;;3.90;1.70;;;;;;;2.63;100.00;101402.63;5201983;27;20024;-72
2024/04/20 05:24:00;;;;;;;2.22;1.58;;;;;;;2.67;100.00;101406.50;5145278;27;20011;-72
2024/04/20 05:26:28;;;;;;;2.88;1.80;;;;;;;2.75;100.00;101414.22;5189111;27;20109;-73
2024/04/20 05:28:53;;;;;;;4.10;2.47;;;;;;;2.85;100.00;101419.97;5206122;27;20012;-73
2024/04/20 05:31:20;;;;;;;3.22;2.20;;;;;;;2.90;100.00;101417.50;5174814;27;20015;-72
2024/04/20 05:33:46;;;;;;;4.43;2.00;;;;;;;2.94;100.00;101421.38;5195238;27;20046;-73
2024/04/20 05:36:12;;;;;;;3.05;2.08;;;;;;;3.00;100.00;101425.06;5198666;27;20030;-73
2024/04/20 05:38:38;;;;;;;3.50;1.90;;;;;;;3.07;100.00;101422.41;5117874;27;20011;-72
2024/04/20 05:41:05;;;;;;;2.67;2.00;;;;;;;3.14;100.00;101424.03;5150657;27;20011;-73
2024/04/20 05:43:32;;;;;;;3.05;2.10;;;;;;;3.22;100.00;101428.31;5164235;27;20023;-72
2024/04/20 05:45:58;;;;;;;3.60;2.22;;;;;;;3.29;100.00;101431.78;5161182;27;20051;-72
2024/04/20 05:48:24;;;;;;;3.25;2.05;;;;;;;3.34;100.00;101433.81;5189887;27;20055;-76
2024/04/20 05:50:50;;;;;;;3.20;2.58;;;;;;;3.42;100.00;101439.72;5173445;27;20015;-73
2024/04/20 05:53:16;;;;;;;4.55;2.22;;;;;;;3.52;100.00;101450.72;5137536;27;20016;-73
2024/04/20 05:55:42;;;;;;;4.10;2.75;;;;;;;3.59;100.00;101444.56;5184945;27;20015;-73
2024/04/20 05:58:08;;;;;;;2.55;1.90;;;;;;;3.65;100.00;101452.50;5168748;27;20048;-73
2024/04/20 06:00:34;;;;;;;3.55;2.42;;;;;;;3.77;100.00;101450.03;5174205;27;20012;-72
2024/04/20 06:03:01;;;;;;;4.68;2.60;;;;;;;3.80;100.00;101457.59;5174073;27;20031;-73
2024/04/20 06:05:27;;;;;;;5.72;2.70;;;;;;;3.91;100.00;101459.59;5198463;27;20083;-73
2024/04/20 06:07:53;;;;;;;4.75;3.33;;;;;;;4.03;100.00;101470.38;5174796;27;20007;-73
2024/04/20 06:10:18;;;;;;;5.22;2.80;;;;;;;4.05;100.00;101469.13;5197053;27;20055;-72
2024/04/20 06:12:44;;;;;;;4.03;2.47;;;;;;;4.09;100.00;101470.34;5190328;27;20031;-73
2024/04/20 06:15:10;;;;;;;3.58;2.20;;;;;;;4.21;100.00;101472.38;5191180;27;20846;-73
2024/04/20 06:17:36;;;;;;;4.20;2.70;;;;;;;4.26;100.00;101475.19;5168524;27;20027;-74
2024/04/20 06:20:02;;;;;;;3.88;2.75;;;;;;;4.34;100.00;101488.22;5187976;27;20358;-74
2024/04/20 06:22:28;;;;;;;;;;;;;;;4.38;100.00;101487.59;5190504;27;20008;-72
2024/04/20 06:24:54;;;;;;;5.25;2.70;;;;;;;4.46;100.00;101496.31;5166098;27;19935;-73
2024/04/20 06:27:21;;;;;;;4.43;2.88;;;;;;;4.53;100.00;101500.56;5166194;27;20052;-73
2024/04/20 06:29:46;;;;;;;2.60;2.05;;;;;;;4.60;100.00;101498.69;5204948;27;20015;-73
2024/04/20 06:32:12;;;;;;;4.03;2.20;;;;;;;4.65;100.00;101495.44;5174176;27;20023;-74
2024/04/20 06:34:38;;;;;;;5.22;2.80;;;;;;;4.75;100.00;101494.97;5145096;27;20004;-73
2024/04/20 06:37:06;;;;;;;3.70;2.15;;;;;;;4.84;100.00;101491.03;5166612;27;20022;-72
2024/04/20 06:39:31;;;;;;;3.53;2.45;;;;;;;4.93;100.00;101497.72;5167678;27;20028;-73
2024/04/20 06:41:57;;;;;;;3.80;2.50;;;;;;;5.11;100.00;101497.00;5168985;27;20085;-73
2024/04/20 06:44:23;;;;;;;3.92;2.10;;;;;;;5.17;100.00;101499.63;5195406;27;20091;-73
2024/04/20 06:46:49;;;;;;;;;;;;;;;5.28;100.00;101502.59;5174424;27;20019;-74
2024/04/20 06:49:15;;;;;;;2.90;2.10;;;;;;;5.42;100.00;101502.28;5140480;27;19928;-74
2024/04/20 06:51:41;;;;;;;3.30;2.40;;;;;;;5.61;100.00;101503.13;5193853;27;20018;-73
2024/04/20 06:54:07;;;;;;;3.30;2.67;;;;;;;5.80;100.00;101511.16;5192250;27;20007;-73
2024/04/20 06:56:33;;;;;;;3.85;2.50;;;;;;;5.92;100.00;101506.78;5172935;27;20832;-73
2024/04/20 06:58:59;;;;;;;3.97;2.80;;;;;;;6.02;100.00;101512.38;5164484;27;20019;-73
2024/04/20 07:01:24;;;;;;;4.13;2.53;;;;;;;6.09;100.00;101504.34;5166756;27;20016;-74
2024/04/20 07:03:51;;;;;;;4.95;3.13;;;;;;;6.12;100.00;101506.56;5195144;27;20372;-74
2024/04/20 07:06:17;;;;;;;3.28;2.80;;;;;;;6.27;100.00;101509.69;5170567;27;20016;-74
2024/04/20 07:08:44;;;;;;;3.95;2.92;;;;;;;6.31;100.00;101518.03;5166280;27;20051;-73
2024/04/20 07:11:10;;;;;;;4.68;2.70;;;;;;;6.22;100.00;101513.00;5171218;27;20019;-73
2024/04/20 07:13:38;;;;;;;3.05;1.95;;;;;;;6.42;100.00;101522.59;5198514;27;20008;-74
2024/04/20 07:16:06;;;;;;;6.35;2.85;;;;;;;6.51;100.00;101522.09;5164598;27;20476;-74
2024/04/20 07:18:32;;;;;;;3.67;2.70;;;;;;;6.57;100.00;101525.72;5191660;27;20099;-74
2024/04/20 07:21:05;;;;;;;5.45;3.20;;;;;;;6.62;100.00;101533.81;5149042;27;20015;-74
2024/04/20 07:23:31;;;;;;;3.53;2.50;;;;;;;6.56;100.00;101537.38;5193849;27;20032;-74
2024/04/20 07:25:58;;;;;;;3.35;2.70;;;;;;;6.60;100.00;101541.22;5141207;27;20016;-74
2024/04/20 07:28:24;;;;;;;3.22;2.33;;;;;;;6.74;100.00;101537.34;5208773;27;20019;-74
2024/04/20 07:30:49;;;;;;;5.25;2.15;;;;;;;6.86;100.00;101548.06;5176706;27;20433;-73
2024/04/20 07:33:15;;;;;;;3.22;2.47;;;;;;;6.95;100.00;101556.53;5194445;27;20012;-73
2024/04/20 07:35:41;;;;;;;4.10;2.08;;;;;;;6.95;100.00;101545.91;5138000;27;20008;-73
2024/04/20 07:38:08;;;;;;;3.90;2.38;;;;;;;6.93;100.00;101558.63;5160265;27;20037;-75
2024/04/20 07:40:33;;;;;;;3.35;2.20;;;;;;;6.95;100.00;101560.03;5141944;27;20742;-73
2024/04/20 07:43:00;;;;;;;3.20;2.15;;;;;;;7.12;100.00;101568.22;5165393;27;20572;-73
2024/04/20 07:45:27;;;;;;;5.03;2.22;;;;;;;7.22;100.00;101555.13;5192236;27;20013;-74
2024/04/20 07:47:52;;;;;;;4.53;2.33;;;;;;;7.23;100.00;101558.59;5115868;27;20011;-73
2024/04/20 07:50:18;;;;;;;2.47;1.90;;;;;;;7.19;100.00;101568.13;5174927;27;20067;-73
2024/04/20 07:52:44;;;;;;;3.22;2.10;;;;;;;7.12;100.00;101570.88;5185166;27;20008;-73
2024/04/20 07:55:10;;;;;;;;;;;;;;;7.03;100.00;101580.19;5165801;27;20096;-73
2024/04/20 07:57:35;;;;;;;2.92;2.17;;;;;;;6.96;100.00;101582.13;5165017;27;19940;-74
2024/04/20 08:00:02;;;;;;;2.58;2.00;;;;;;;6.90;100.00;101583.03;5191808;27;20008;-74
2024/04/20 08:02:30;;;;;;;3.90;2.20;;;;;;;7.06;100.00;101579.75;5179941;27;20012;-73
2024/04/20 08:04:56;;;;;;;3.53;2.03;;;;;;;7.29;100.00;101585.16;5170397;27;20456;-73
2024/04/20 08:07:22;;;;;;;2.83;1.83;;;;;;;7.21;100.00;101584.69;5168236;27;20008;-75
2024/04/20 08:09:48;;;;;;;3.75;1.90;;;;;;;7.25;100.00;101581.34;5141050;27;20007;-75
2024/04/20 08:12:13;;;;;;;2.80;1.70;;;;;;;7.36;100.00;101595.72;5195265;27;20863;-75
2024/04/20 08:14:41;;;;;;;2.95;1.67;;;;;;;7.37;100.00;101605.34;5171140;27;20019;-76
2024/04/20 08:17:06;;;;;;;4.72;2.25;;;;;;;7.36;100.00;101598.38;5169802;27;20037;-73
2024/04/20 08:19:33;;;;;;;4.05;2.15;;;;;;;7.35;100.00;101602.91;5196146;27;20469;-77
2024/04/20 08:21:59;;;;;;;3.53;2.15;;;;;;;7.36;100.00;101609.84;5133923;27;20011;-76
2024/04/20 08:24:24;;;;;;;4.40;2.00;;;;;;;7.25;100.00;101610.66;5185108;27;20103;-74
2024/04/20 08:26:52;;;;;;;2.25;1.38;;;;;;;7.23;100.00;101604.72;5141599;27;20091;-73
2024/04/20 08:29:17;;;;;;;2.83;1.60;;;;;;;7.20;100.00;101604.38;5192855;27;20023;-73
2024/04/20 08:31:43;;;;;;;3.58;1.63;;;;;;;7.14;100.00;101613.25;5199474;27;20744;-74
2024/04/20 08:34:09;;;;;;;2.38;1.52;;;;;;;7.05;100.00;101612.75;5141717;27;20031;-73
2024/04/20 08:36:35;;;;;;;2.78;1.55;;;;;;;6.99;100.00;101622.47;5190697;27;20027;-74
2024/04/20 08:39:01;;;;;;;2.67;1.50;;;;;;;6.88;100.00;101622.38;5142398;27;20012;-74
2024/04/20 08:41:29;;;;;;;;;;;;;;;6.83;100.00;101631.03;5183363;27;20016;-73
2024/04/20 08:44:00;;;;;;;1.92;1.55;;;;;;;6.83;100.00;101631.84;5134427;27;20658;-73
2024/04/20 08:46:26;;;;;;;3.40;1.85;;;;;;;6.88;100.00;101630.38;5169257;27;20645;-74
2024/04/20 08:48:54;;;;;;;2.78;1.40;;;;;;;6.92;100.00;101631.56;5188787;27;20023;-73
2024/04/20 08:51:21;;;;;;;3.78;1.52;;;;;;;6.96;100.00;101635.41;5169679;27;20008;-73
2024/04/20 08:53:47;;;;;;;2.53;1.55;;;;;;;6.97;100.00;101642.34;5170278;27;20011;-74
2024/04/20 08:56:13;;;;;;;4.05;1.60;;;;;;;6.98;100.00;101641.34;5144662;27;20114;-73
2024/04/20 08:58:39;;;;;;;3.15;1.52;;;;;;;7.00;100.00;101644.56;5144662;27;20023;-73
2024/04/20 09:01:11;;;;;;;3.13;1.40;;;;;;;7.04;100.00;101641.22;5174416;27;20016;-74
2024/04/20 09:03:37;;;;;;;2.40;1.70;;;;;;;7.20;100.00;101645.13;5166142;27;20015;-74
2024/04/20 09:06:02;;;;;;;2.97;1.65;;;;;;;7.18;100.00;101647.22;5144906;27;20020;-74
2024/04/20 09:08:30;;;;;;;1.65;1.30;;;;;;;7.24;100.00;101648.16;5186986;27;20019;-73
2024/04/20 09:10:57;;;;;;;2.60;1.27;;;;;;;7.23;100.00;101647.34;5190573;27;20018;-74
2024/04/20 09:13:23;;;;;;;2.85;1.50;;;;;;;7.31;100.00;101654.19;5169649;27;20159;-75
2024/04/20 09:15:48;;;;;;;2.92;1.40;;;;;;;7.36;100.00;101655.16;5200972;27;20008;-73
2024/04/20 09:18:20;;;;;;;3.33;1.40;;;;;;;7.39;100.00;101649.41;5164869;27;20035;-76
2024/04/20 09:20:50;;;;;;;2.05;1.23;;;;;;;7.46;100.00;101656.50;5191070;27;20015;-73
2024/04/20 09:23:21;;;;;;;2.55;1.30;;;;;;;7.53;100.00;101651.88;5143202;27;20083;-73
2024/04/20 09:25:51;;;;;;;4.18;1.30;;;;;;;7.58;100.00;101659.97;5192142;27;20022;-73
2024/04/20 09:28:16;;;;;;;3.20;1.23;;;;;;;7.76;100.00;101654.59;5165756;27;20023;-74
2024/04/20 09:30:42;;;;;;;3.53;1.45;;;;;;;7.86;100.00;101654.06;5163868;27;20106;-72
2024/04/20 09:33:14;;;;;;;3.75;1.67;;;;;;;7.89;100.00;101651.72;5193204;27;21964;-73
2024/04/20 09:35:44;;;;;;;3.55;1.40;;;;;;;7.92;100.00;101651.28;5193537;27;20026;-72
2024/04/20 09:38:10;;;;;;;2.05;1.55;;;;;;;8.00;100.00;101665.31;5168196;27;20020;-73
2024/04/20 09:40:37;;;;;;;4.45;1.40;;;;;;;7.94;100.00;101653.72;5189050;27;20029;-73
2024/04/20 09:43:04;;;;;;;2.72;1.40;;;;;;;7.94;100.00;101653.72;5146027;27;20884;-75
2024/04/20 09:45:29;;;;;;;;;;;;;;;8.00;100.00;101660.00;5169874;27;20011;-73
2024/04/20 09:47:57;;;;;;;2.05;1.30;;;;;;;8.01;100.00;101658.94;5147663;27;19960;-73
2024/04/20 09:50:25;;;;;;;1.80;1.42;;;;;;;8.03;100.00;101662.19;5197958;27;20060;-73
2024/04/20 09:53:04;;;;;;;2.33;1.23;;;;;;;8.00;100.00;101655.47;5134696;27;20048;-75
2024/04/20 09:55:30;;;;;;;;;;;;;;;8.09;100.00;101658.59;5166929;27;20058;-77
2024/04/20 09:57:59;;;;;;;4.20;1.40;;;;;;;8.13;100.00;101667.78;5164385;27;19935;-74
2024/04/20 10:00:25;;;;;;;2.35;1.40;;;;;;;8.15;100.00;101668.34;5195185;27;20019;-73
2024/04/20 10:02:52;;;;;;;3.47;1.50;;;;;;;8.04;100.00;101680.63;5146541;27;20036;-74
2024/04/20 10:05:19;;;;;;;3.53;1.48;;;;;;;8.14;100.00;101680.06;5189966;27;20465;-73
2024/04/20 10:07:45;;;;;;;2.58;1.50;;;;;;;8.18;100.00;101675.88;5165918;27;20011;-73
2024/04/20 10:10:12;;;;;;;2.38;2.00;;;;;;;8.13;100.00;101683.78;5174301;27;20028;-73
2024/04/20 10:12:42;;;;;;;1.98;1.42;;;;;;;8.15;100.00;101682.50;5174391;27;20009;-72
2024/04/20 10:15:08;;;;;;;2.95;1.85;;;;;;;8.15;100.00;101687.03;5192139;27;20030;-74
2024/04/20 10:17:34;;;;;;;2.63;1.55;;;;;;;8.18;100.00;101690.03;5195543;27;20150;-73
2024/04/20 10:20:00;;;;;;;2.17;1.38;;;;;;;8.09;100.00;101687.94;5164471;27;20090;-73
2024/04/20 10:22:27;;;;;;;1.92;1.30;;;;;;;7.99;100.00;101688.50;5113776;27;20021;-73
2024/04/20 10:25:02;;;;;;;2.42;1.50;;;;;;;7.83;100.00;101699.84;5166966;27;20027;-73
2024/04/20 10:27:33;;;;;;;3.25;1.60;;;;;;;7.79;100.00;101696.81;5168675;27;20027;-74
2024/04/20 10:30:21;;;;;;;2.15;1.35;;;;;;;7.82;100.00;101701.69;5171752;27;20026;-73
2024/04/20 10:33:02;;;;;;;2.50;1.60;;;;;;;7.84;100.00;101699.59;5199656;27;20011;-73
2024/04/20 10:35:28;;;;;;;2.58;1.38;;;;;;;7.94;100.00;101707.06;5173249;27;20022;-75
2024/04/20 10:38:07;;;;;;;3.15;1.40;;;;;;;7.90;100.00;101706.69;5143021;27;20013;-73
2024/04/20 10:40:36;;;;;;;2.33;1.40;;;;;;;7.96;100.00;101709.50;5170385;27;20011;-74
2024/04/20 10:43:17;;;;;;;2.60;1.38;;;;;;;8.11;100.00;101712.53;5188325;27;20019;-73
2024/04/20 10:45:44;;;;;;;2.10;1.10;;;;;;;8.31;100.00;101709.53;5190384;27;20584;-75
2024/04/20 10:48:13;;;;;;;3.80;1.83;;;;;;;8.49;100.00;101712.16;5170194;27;20012;-74
2024/04/20 10:50:43;;;;;;;3.00;1.50;;;;;;;8.60;100.00;101726.53;5196505;27;20011;-74
2024/04/20 10:53:10;;;;;;;3.35;1.58;;;;;;;8.05;100.00;101737.47;5130652;27;20073;-73
2024/04/20 10:55:36;;;;;;;1.63;1.20;;;;;;;7.69;100.00;101728.53;5172311;27;20019;-73
2024/04/20 10:58:03;;;;;;;2.22;1.20;;;;;;;7.30;100.00;101741.31;5189261;27;20015;-73
2024/04/20 11:00:29;;;;;;;1.70;1.30;;;;;;;6.95;100.00;101749.09;5190243;27;20091;-74
2024/04/20 11:02:55;;;;;;;1.58;1.20;;;;;;;6.68;100.00;101753.88;5135554;27;20016;-74
2024/04/20 11:05:21;;;;;;;1.77;1.55;;;;;;;6.42;100.00;101768.19;5161932;27;20023;-73
2024/04/20 11:08:01;;;;;;;2.35;1.63;;;;;;;6.16;100.00;101765.72;5186790;27;20411;-73
2024/04/20 11:10:28;;;;;;;2.03;1.30;;;;;;;5.84;100.00;101772.88;5191516;27;20012;-74
2024/04/20 11:13:04;;;;;;;2.80;1.40;;;;;;;5.84;100.00;101764.91;5133955;27;20399;-74
2024/04/20 11:15:31;;;;;;;2.22;1.40;;;;;;;5.77;100.00;101775.56;5171805;27;20011;-73
2024/04/20 11:17:58;;;;;;;3.08;1.58;;;;;;;5.85;100.00;101766.53;5191836;27;20012;-73
2024/04/20 11:20:24;;;;;;;2.78;1.90;;;;;;;5.93;100.00;101774.28;5171327;27;20062;-73
2024/04/20 11:22:50;;;;;;;3.63;1.70;;;;;;;5.87;100.00;101769.78;5176628;27;20153;-72
2024/04/20 11:25:16;;;;;;;2.80;1.98;;;;;;;5.92;100.00;101770.00;5176890;27;20477;-73